createdAt,value
2022-07-26T00:00:12.472Z,4.72
2022-07-26T00:02:48.054Z,4.88
2022-07-26T00:05:19.332Z,4.85
2022-07-26T00:07:47.801Z,5.13
2022-07-26T00:10:16.756Z,4.50
2022-07-26T00:12:45.613Z,4.78
2022-07-26T00:15:14.473Z,4.72
2022-07-26T00:17:43.104Z,4.78
2022-07-26T00:20:11.989Z,4.40
2022-07-26T00:22:42.163Z,4.70
2022-07-26T00:25:11.674Z,4.40
2022-07-26T00:27:40.899Z,4.50
2022-07-26T00:30:11.838Z,4.95
2022-07-26T00:32:40.191Z,4.75
2022-07-26T00:35:09.503Z,4.78
2022-07-26T00:37:38.538Z,4.90
2022-07-26T00:40:10.602Z,4.60
2022-07-26T00:42:39.651Z,4.95
2022-07-26T00:45:10.401Z,4.32
2022-07-26T00:47:39.516Z,4.53
2022-07-26T00:50:10.636Z,4.68
2022-07-26T00:52:40.043Z,4.30
2022-07-26T00:55:11.915Z,4.72
2022-07-26T00:57:41.085Z,4.45
2022-07-26T01:00:12.894Z,4.60
2022-07-26T01:02:42.010Z,4.53
2022-07-26T01:05:11.115Z,4.53
2022-07-26T01:07:39.760Z,4.57
2022-07-26T01:10:12.716Z,4.60
2022-07-26T01:12:42.009Z,4.50
2022-07-26T01:15:12.812Z,4.50
2022-07-26T01:17:42.227Z,4.30
2022-07-26T01:20:13.499Z,4.90
2022-07-26T01:22:43.972Z,4.88
2022-07-26T01:25:12.512Z,4.38
2022-07-26T01:27:41.147Z,4.90
2022-07-26T01:30:12.031Z,4.43
2022-07-26T01:32:40.818Z,4.55
2022-07-26T01:35:10.374Z,4.93
2022-07-26T01:37:39.195Z,4.88
2022-07-26T01:40:11.987Z,4.32
2022-07-26T01:42:41.327Z,4.40
2022-07-26T01:45:10.476Z,5.07
2022-07-26T01:47:39.513Z,4.55
2022-07-26T01:50:10.004Z,4.43
2022-07-26T01:52:39.404Z,4.55
2022-07-26T01:55:10.804Z,4.60
2022-07-26T01:57:39.705Z,4.40
2022-07-26T02:00:09.328Z,4.70
2022-07-26T02:02:38.788Z,4.50
2022-07-26T02:05:08.223Z,4.50
2022-07-26T02:07:42.586Z,4.85
2022-07-26T02:12:43.921Z,4.50
2022-07-26T02:15:13.679Z,4.22
2022-07-26T02:17:42.657Z,4.72
2022-07-26T02:20:11.836Z,4.60
2022-07-26T02:22:40.646Z,4.63
2022-07-26T02:25:09.541Z,4.43
2022-07-26T02:27:39.573Z,4.45
2022-07-26T02:30:09.286Z,4.57
2022-07-26T02:32:38.154Z,4.65
2022-07-26T02:35:07.728Z,4.90
2022-07-26T02:37:37.577Z,4.72
2022-07-26T02:40:18.805Z,4.35
2022-07-26T02:42:49.754Z,4.75
2022-07-26T02:45:20.933Z,4.40
2022-07-26T02:47:50.288Z,4.68
2022-07-26T02:50:19.391Z,4.95
2022-07-26T02:52:48.997Z,4.90
2022-07-26T02:55:18.658Z,4.88
2022-07-26T02:57:49.210Z,4.60
2022-07-26T03:00:23.318Z,4.82
2022-07-26T03:02:52.611Z,4.82
2022-07-26T03:05:21.561Z,5.18
2022-07-26T03:07:51.094Z,5.05
2022-07-26T03:10:20.143Z,4.68
2022-07-26T03:12:50.780Z,4.63
2022-07-26T03:15:19.835Z,4.43
2022-07-26T03:17:50.228Z,5.10
2022-07-26T03:20:18.657Z,4.97
2022-07-26T03:22:47.347Z,4.90
2022-07-26T03:25:16.401Z,4.65
2022-07-26T03:27:45.288Z,4.97
2022-07-26T03:30:16.438Z,4.60
2022-07-26T03:32:53.446Z,4.60
2022-07-26T03:35:22.765Z,5.10
2022-07-26T03:37:51.535Z,5.22
2022-07-26T03:40:20.329Z,4.55
2022-07-26T03:42:50.010Z,4.72
2022-07-26T03:45:20.273Z,4.55
2022-07-26T03:47:49.050Z,4.70
2022-07-26T03:50:17.737Z,4.47
2022-07-26T03:52:46.440Z,4.47
2022-07-26T03:55:32.534Z,4.63
2022-07-26T04:00:31.188Z,4.95
2022-07-26T04:03:00.203Z,5.35
2022-07-26T04:05:29.012Z,5.30
2022-07-26T04:07:59.666Z,5.10
2022-07-26T04:10:29.032Z,4.80
2022-07-26T04:12:57.851Z,4.97
2022-07-26T04:15:26.364Z,5.10
2022-07-26T04:17:57.023Z,5.15
2022-07-26T04:20:25.815Z,4.72
2022-07-26T04:22:54.300Z,5.13
2022-07-26T04:25:23.198Z,5.20
2022-07-26T04:27:52.085Z,4.97
2022-07-26T04:30:20.716Z,5.45
2022-07-26T04:32:49.173Z,5.10
2022-07-26T04:35:19.685Z,5.45
2022-07-26T04:37:48.472Z,4.88
2022-07-26T04:40:21.433Z,5.10
2022-07-26T04:42:52.063Z,4.93
2022-07-26T04:45:20.467Z,4.85
2022-07-26T04:47:51.273Z,5.63
2022-07-26T04:50:26.241Z,5.80
2022-07-26T04:52:55.847Z,5.10
2022-07-26T04:55:25.653Z,4.88
2022-07-26T04:57:54.350Z,4.75
2022-07-26T05:00:25.141Z,5.00
2022-07-26T05:02:56.060Z,5.65
2022-07-26T05:05:28.742Z,5.38
2022-07-26T05:08:01.666Z,5.40
2022-07-26T05:10:32.818Z,5.07
2022-07-26T05:13:01.552Z,4.88
2022-07-26T05:15:35.390Z,5.10
2022-07-26T05:18:07.147Z,4.95
2022-07-26T05:20:39.063Z,5.28
2022-07-26T05:23:07.980Z,4.97
2022-07-26T05:25:38.007Z,5.07
2022-07-26T05:28:10.052Z,5.25
2022-07-26T05:30:38.845Z,4.97
2022-07-26T05:33:07.925Z,5.32
2022-07-26T05:35:37.810Z,4.90
2022-07-26T05:38:07.290Z,4.72
2022-07-26T05:40:36.007Z,4.93
2022-07-26T05:43:05.144Z,4.38
2022-07-26T05:45:33.725Z,4.78
2022-07-26T05:48:02.752Z,4.95
2022-07-26T05:50:31.753Z,4.75
2022-07-26T05:53:02.409Z,4.78
2022-07-26T05:55:31.129Z,4.70
2022-07-26T05:57:59.897Z,4.60
2022-07-26T06:00:28.872Z,4.40
2022-07-26T06:02:57.825Z,4.38
2022-07-26T06:05:26.266Z,4.47
2022-07-26T06:08:02.290Z,4.57
2022-07-26T06:10:35.313Z,4.90
2022-07-26T06:13:04.505Z,5.20
2022-07-26T06:15:33.163Z,4.85
2022-07-26T06:18:01.878Z,4.80
2022-07-26T06:20:30.759Z,4.38
2022-07-26T06:22:59.658Z,4.13
2022-07-26T06:25:29.252Z,4.50
2022-07-26T06:27:59.434Z,4.35
2022-07-26T06:30:28.485Z,3.92
2022-07-26T06:32:57.279Z,3.78
2022-07-26T06:35:29.245Z,4.00
2022-07-26T06:37:58.908Z,3.88
2022-07-26T06:40:29.598Z,4.30
2022-07-26T06:43:04.070Z,3.90
2022-07-26T06:45:34.212Z,4.45
2022-07-26T06:48:05.095Z,3.97
2022-07-26T06:50:37.234Z,3.97
2022-07-26T06:53:08.873Z,4.38
2022-07-26T06:55:40.894Z,4.25
2022-07-26T06:58:18.028Z,4.00
2022-07-26T07:00:50.077Z,4.28
2022-07-26T07:03:19.420Z,3.78
2022-07-26T07:05:50.225Z,4.18
2022-07-26T07:08:24.176Z,3.95
2022-07-26T07:10:52.995Z,4.20
2022-07-26T07:13:24.062Z,3.90
2022-07-26T07:15:52.968Z,4.18
2022-07-26T07:18:23.209Z,4.00
2022-07-26T07:20:51.953Z,4.15
2022-07-26T07:23:25.213Z,4.22
2022-07-26T07:25:54.311Z,4.28
2022-07-26T07:28:25.004Z,3.90
2022-07-26T07:30:53.595Z,4.30
2022-07-26T07:33:23.357Z,4.22
2022-07-26T07:35:54.681Z,4.10
2022-07-26T07:38:23.748Z,4.20
2022-07-26T07:40:53.366Z,4.10
2022-07-26T07:43:23.387Z,4.15
2022-07-26T07:45:52.115Z,4.30
2022-07-26T07:48:20.805Z,3.85
2022-07-26T07:50:49.225Z,4.38
2022-07-26T07:53:17.883Z,4.22
2022-07-26T07:55:48.779Z,4.47
2022-07-26T07:58:19.018Z,4.10
2022-07-26T08:00:49.498Z,4.55
2022-07-26T08:03:19.327Z,4.13
2022-07-26T08:05:49.963Z,4.97
2022-07-26T08:08:22.464Z,4.30
2022-07-26T08:10:53.253Z,4.05
2022-07-26T08:13:22.729Z,4.28
2022-07-26T08:15:53.789Z,4.20
2022-07-26T08:18:24.095Z,4.18
2022-07-26T08:20:56.228Z,4.10
2022-07-26T08:23:25.250Z,4.10
2022-07-26T08:26:00.680Z,4.00
2022-07-26T08:28:48.508Z,3.90
2022-07-26T08:33:57.851Z,4.68
2022-07-26T08:36:32.350Z,4.00
2022-07-26T08:39:01.781Z,4.27
2022-07-26T08:41:30.866Z,4.03
2022-07-26T08:44:14.452Z,4.50
2022-07-26T08:46:44.570Z,4.35
2022-07-26T08:49:15.261Z,4.40
2022-07-26T08:51:45.102Z,4.20
2022-07-26T08:54:15.807Z,4.22
2022-07-26T08:56:52.263Z,4.60
2022-07-26T08:59:23.273Z,4.25
2022-07-26T09:01:57.157Z,4.47
2022-07-26T09:04:37.557Z,4.45
2022-07-26T09:07:11.895Z,4.22
2022-07-26T09:09:56.909Z,4.55
2022-07-26T09:12:26.356Z,4.25
2022-07-26T09:14:55.144Z,4.30
2022-07-26T09:17:27.940Z,4.55
2022-07-26T09:20:10.651Z,4.15
2022-07-26T09:22:40.573Z,4.28
2022-07-26T09:25:22.287Z,4.68
2022-07-26T09:27:52.281Z,4.45
2022-07-26T09:30:22.144Z,4.85
2022-07-26T09:33:06.019Z,4.47
2022-07-26T09:35:51.006Z,4.35
2022-07-26T09:38:20.850Z,4.53
2022-07-26T09:40:55.493Z,4.53
2022-07-26T09:43:26.920Z,4.78
2022-07-26T09:46:07.563Z,4.55
2022-07-26T09:49:10.065Z,4.85
2022-07-26T09:51:39.372Z,4.57
2022-07-26T09:54:08.959Z,4.60
2022-07-26T09:56:49.299Z,4.72
2022-07-26T09:59:20.357Z,5.45
2022-07-26T10:01:50.868Z,4.88
2022-07-26T10:04:25.573Z,4.97
2022-07-26T10:06:57.980Z,4.68
2022-07-26T10:09:27.666Z,4.70
2022-07-26T10:11:59.730Z,4.88
2022-07-26T10:14:40.231Z,4.82
2022-07-26T10:17:44.855Z,5.05
2022-07-26T10:20:53.532Z,4.85
2022-07-26T10:23:48.359Z,5.07
2022-07-26T10:26:43.187Z,5.28
2022-07-26T10:29:32.950Z,5.20
2022-07-26T10:32:24.887Z,5.30
2022-07-26T10:34:56.115Z,4.88
2022-07-26T10:37:32.291Z,5.40
2022-07-26T10:40:23.125Z,5.60
2022-07-26T10:42:55.623Z,5.68
2022-07-26T10:45:28.014Z,5.60
2022-07-26T10:48:18.914Z,5.68
2022-07-26T10:50:50.710Z,5.90
2022-07-26T10:53:23.967Z,5.55
2022-07-26T10:55:54.346Z,5.60
2022-07-26T10:58:24.979Z,5.47
2022-07-26T11:01:01.731Z,5.55
2022-07-26T11:03:40.349Z,5.13
2022-07-26T11:06:13.892Z,5.28
2022-07-26T11:08:52.162Z,5.18
2022-07-26T11:11:35.055Z,5.80
2022-07-26T11:14:10.737Z,5.47
2022-07-26T11:16:41.268Z,5.00
2022-07-26T11:19:17.997Z,5.20
2022-07-26T11:21:49.146Z,5.20
2022-07-26T11:24:22.148Z,5.38
2022-07-26T11:26:51.004Z,5.57
2022-07-26T11:29:38.310Z,5.40
2022-07-26T11:32:18.047Z,5.35
2022-07-26T11:34:48.446Z,5.60
2022-07-26T11:37:17.409Z,5.60
2022-07-26T11:39:49.565Z,5.70
2022-07-26T11:42:22.001Z,5.50
2022-07-26T11:44:53.645Z,5.32
2022-07-26T11:47:25.189Z,5.75
2022-07-26T11:50:18.272Z,5.40
2022-07-26T11:52:44.791Z,5.82
2022-07-26T11:55:26.610Z,5.43
2022-07-26T11:57:56.137Z,5.80
2022-07-26T12:00:25.075Z,6.65
2022-07-26T12:02:56.049Z,8.20
2022-07-26T12:05:25.552Z,9.60
2022-07-26T12:07:59.478Z,10.32
2022-07-26T12:10:30.185Z,9.75
2022-07-26T12:13:09.996Z,10.77
2022-07-26T12:15:49.131Z,13.80
2022-07-26T12:18:25.797Z,13.38
2022-07-26T12:21:03.913Z,13.57
2022-07-26T12:23:44.627Z,14.27
2022-07-26T12:26:26.821Z,13.55
2022-07-26T12:28:55.887Z,14.32
2022-07-26T12:31:26.741Z,13.05
2022-07-26T12:33:55.949Z,14.65
2022-07-26T12:36:29.082Z,13.60
2022-07-26T12:39:00.335Z,13.45
2022-07-26T12:41:35.591Z,14.35
2022-07-26T12:44:05.302Z,13.15
2022-07-26T12:46:36.900Z,14.13
2022-07-26T12:49:06.818Z,13.88
2022-07-26T12:51:36.496Z,13.50
2022-07-26T12:54:06.680Z,13.65
2022-07-26T12:56:37.166Z,14.13
2022-07-26T12:59:06.140Z,13.82
2022-07-26T13:01:35.062Z,12.77
2022-07-26T13:04:04.113Z,13.65
2022-07-26T13:06:33.129Z,13.02
2022-07-26T13:09:04.907Z,12.27
2022-07-26T13:11:33.558Z,13.15
2022-07-26T13:14:04.167Z,12.73
2022-07-26T13:16:33.109Z,13.02
2022-07-26T13:19:02.060Z,13.25
2022-07-26T13:21:33.850Z,11.57
2022-07-26T13:24:02.390Z,12.93
2022-07-26T13:26:31.134Z,12.20
2022-07-26T13:29:06.745Z,12.40
2022-07-26T13:31:35.679Z,12.23
2022-07-26T13:34:05.247Z,11.18
2022-07-26T13:36:33.986Z,11.10
2022-07-26T13:39:02.766Z,11.68
2022-07-26T13:41:32.200Z,10.88
2022-07-26T13:44:06.711Z,10.93
2022-07-26T13:46:35.857Z,10.93
2022-07-26T13:49:06.903Z,10.35
2022-07-26T13:51:55.054Z,10.80
2022-07-26T13:54:25.263Z,10.63
2022-07-26T13:56:54.175Z,10.27
2022-07-26T13:59:25.144Z,10.55
2022-07-26T14:01:55.925Z,10.75
2022-07-26T14:04:25.385Z,9.68
2022-07-26T14:06:54.226Z,8.95
2022-07-26T14:09:23.191Z,9.25
2022-07-26T14:11:51.545Z,8.18
2022-07-26T14:14:20.259Z,8.88
2022-07-26T14:16:50.417Z,8.32
2022-07-26T14:19:19.309Z,8.23
2022-07-26T14:21:59.557Z,7.80
2022-07-26T14:24:29.489Z,8.20
2022-07-26T14:26:59.473Z,8.32
2022-07-26T14:29:28.804Z,8.27
2022-07-26T14:31:58.661Z,8.23
2022-07-26T14:34:27.324Z,8.35
2022-07-26T14:36:55.744Z,8.65
2022-07-26T14:39:24.544Z,8.70
2022-07-26T14:41:53.073Z,8.80
2022-07-26T14:44:21.494Z,8.10
2022-07-26T14:46:50.294Z,8.98
2022-07-26T14:49:21.529Z,8.80
2022-07-26T14:51:50.575Z,9.10
2022-07-26T14:54:19.261Z,9.07
2022-07-26T14:56:49.064Z,9.23
2022-07-26T14:59:18.175Z,9.80
2022-07-26T15:01:46.855Z,9.02
2022-07-26T15:04:15.932Z,10.50
2022-07-26T15:06:46.190Z,10.80
2022-07-26T15:09:14.997Z,11.57
2022-07-26T15:11:43.850Z,10.10
2022-07-26T15:14:12.678Z,10.90
2022-07-26T15:16:41.851Z,10.20
2022-07-26T15:19:10.205Z,11.88
2022-07-26T15:21:39.008Z,14.75
2022-07-26T15:24:12.574Z,15.40
2022-07-26T15:26:49.922Z,15.82
2022-07-26T15:29:18.746Z,16.83
2022-07-26T15:31:48.682Z,16.08
2022-07-26T15:34:17.680Z,17.40
2022-07-26T15:36:46.126Z,16.38
2022-07-26T15:39:18.131Z,15.80
2022-07-26T15:41:47.810Z,15.77
2022-07-26T15:44:18.455Z,16.23
2022-07-26T15:46:48.783Z,16.10
2022-07-26T15:49:18.945Z,15.77
2022-07-26T15:51:47.672Z,15.52
2022-07-26T15:54:20.677Z,15.57
2022-07-26T15:56:49.690Z,15.02
2022-07-26T15:59:18.674Z,13.80
2022-07-26T16:01:47.682Z,14.23
2022-07-26T16:04:16.734Z,13.90
2022-07-26T16:06:45.851Z,14.30
2022-07-26T16:09:17.026Z,14.75
2022-07-26T16:11:49.494Z,15.35
2022-07-26T16:14:18.990Z,14.75
2022-07-26T16:16:47.929Z,15.45
2022-07-26T16:19:17.274Z,16.20
2022-07-26T16:21:46.167Z,16.73
2022-07-26T16:24:15.066Z,17.40
2022-07-26T16:26:43.942Z,16.42
2022-07-26T16:29:17.471Z,16.92
2022-07-26T16:31:47.094Z,15.82
2022-07-26T16:34:16.263Z,14.90
2022-07-26T16:36:46.134Z,14.02
2022-07-26T16:39:15.977Z,14.30
2022-07-26T16:41:50.925Z,12.88
2022-07-26T16:44:22.568Z,13.35
2022-07-26T16:46:51.223Z,13.35
2022-07-26T16:49:20.280Z,13.15
2022-07-26T16:51:49.151Z,13.93
2022-07-26T16:54:17.852Z,13.77
2022-07-26T16:56:47.263Z,13.13
2022-07-26T16:59:17.790Z,13.07
2022-07-26T17:01:48.609Z,13.50
2022-07-26T17:04:17.989Z,13.13
2022-07-26T17:07:14.602Z,12.88
2022-07-26T17:09:43.744Z,11.70
2022-07-26T17:12:22.401Z,12.38
2022-07-26T17:15:20.169Z,12.15
2022-07-26T17:17:58.135Z,12.18
2022-07-26T17:20:30.585Z,12.55
2022-07-26T17:23:19.813Z,12.73
2022-07-26T17:29:15.301Z,12.27
2022-07-26T17:31:44.832Z,12.18
2022-07-26T17:34:21.816Z,12.70
2022-07-26T17:37:00.902Z,13.02
2022-07-26T17:39:54.001Z,12.90
2022-07-26T17:42:27.127Z,13.73
2022-07-26T17:44:55.917Z,15.32
2022-07-26T17:47:28.975Z,13.25
2022-07-26T17:53:01.290Z,13.48
2022-07-26T17:55:44.618Z,13.23
2022-07-26T18:01:36.367Z,12.70
2022-07-26T18:04:08.060Z,12.70
2022-07-26T18:06:42.342Z,12.95
2022-07-26T18:09:16.380Z,13.32
2022-07-26T18:11:47.333Z,13.75
2022-07-26T18:14:16.322Z,13.23
2022-07-26T18:16:48.373Z,13.27
2022-07-26T18:19:23.064Z,13.57
2022-07-26T18:21:53.775Z,13.65
2022-07-26T18:24:22.838Z,14.15
2022-07-26T18:26:51.929Z,13.68
2022-07-26T18:29:20.772Z,14.32
2022-07-26T18:31:53.280Z,13.90
2022-07-26T18:34:22.160Z,14.23
2022-07-26T18:36:52.688Z,14.35
2022-07-26T18:39:21.936Z,14.07
2022-07-26T18:41:50.463Z,13.73
2022-07-26T18:44:18.883Z,14.18
2022-07-26T18:46:47.573Z,13.68
2022-07-26T18:49:20.216Z,14.13
2022-07-26T18:51:49.631Z,14.05
2022-07-26T18:54:19.954Z,13.35
2022-07-26T18:56:48.788Z,13.60
2022-07-26T18:59:17.529Z,13.93
2022-07-26T19:01:46.627Z,14.18
2022-07-26T19:04:17.105Z,13.75
2022-07-26T19:06:47.286Z,14.02
2022-07-26T19:09:19.958Z,14.50
2022-07-26T19:11:48.788Z,14.32
2022-07-26T19:14:17.493Z,14.13
2022-07-26T19:16:46.390Z,14.70
2022-07-26T19:19:15.650Z,14.85
2022-07-26T19:21:47.434Z,14.10
2022-07-26T19:24:16.316Z,14.50
2022-07-26T19:26:46.302Z,12.88
2022-07-26T19:29:15.314Z,13.80
2022-07-26T19:31:46.192Z,14.75
2022-07-26T19:34:15.939Z,15.15
2022-07-26T19:36:44.353Z,14.75
2022-07-26T19:39:13.690Z,14.82
2022-07-26T19:41:43.914Z,15.57
2022-07-26T19:44:15.801Z,15.32
2022-07-26T19:46:46.202Z,14.95
2022-07-26T19:49:16.122Z,15.82
2022-07-26T19:51:44.916Z,15.65
2022-07-26T19:54:13.921Z,16.27
2022-07-26T19:56:42.823Z,17.27
2022-07-26T19:59:12.130Z,17.65
2022-07-26T20:01:43.079Z,18.00
2022-07-26T20:04:11.952Z,17.42
2022-07-26T20:06:40.879Z,18.00
2022-07-26T20:09:09.659Z,17.92
2022-07-26T20:11:38.897Z,17.60
2022-07-26T20:14:07.463Z,17.55
2022-07-26T20:16:36.554Z,17.52
2022-07-26T20:19:06.935Z,18.58
2022-07-26T20:21:35.684Z,17.67
2022-07-26T20:24:04.458Z,18.33
2022-07-26T20:26:32.865Z,17.85
2022-07-26T20:29:01.723Z,17.45
2022-07-26T20:31:30.668Z,17.23
2022-07-26T20:34:00.640Z,17.98
2022-07-26T20:36:31.252Z,18.27
2022-07-26T20:39:00.009Z,17.20
2022-07-26T20:41:28.344Z,17.75
2022-07-26T20:44:02.799Z,17.00
2022-07-26T20:46:33.588Z,17.40
2022-07-26T20:49:02.571Z,18.08
2022-07-26T20:51:32.419Z,17.15
2022-07-26T20:54:01.175Z,18.10
2022-07-26T20:56:29.507Z,18.27
2022-07-26T20:58:57.865Z,18.27
2022-07-26T21:01:26.595Z,18.38
2022-07-26T21:03:55.329Z,19.05
2022-07-26T21:06:23.874Z,18.48
2022-07-26T21:08:56.065Z,17.92
2022-07-26T21:11:24.858Z,18.10
2022-07-26T21:13:53.564Z,18.90
2022-07-26T21:16:21.950Z,18.73
2022-07-26T21:18:52.758Z,18.23
2022-07-26T21:21:26.123Z,17.88
2022-07-26T21:23:56.430Z,18.42
2022-07-26T21:26:28.661Z,18.67
2022-07-26T21:28:57.901Z,16.52
2022-07-26T21:31:26.670Z,14.75
2022-07-26T21:33:55.417Z,13.27
2022-07-26T21:36:24.328Z,13.07
2022-07-26T21:38:53.170Z,13.30
2022-07-26T21:41:23.471Z,12.93
2022-07-26T21:43:52.335Z,11.98
2022-07-26T21:46:20.849Z,11.73
2022-07-26T21:48:49.654Z,12.02
2022-07-26T21:51:18.619Z,11.85
2022-07-26T21:53:47.513Z,12.10
2022-07-26T21:56:16.029Z,12.13
2022-07-26T21:58:48.462Z,11.85
2022-07-26T22:01:16.932Z,12.05
2022-07-26T22:03:45.800Z,11.57
2022-07-26T22:06:15.138Z,11.65
2022-07-26T22:08:44.512Z,10.93
2022-07-26T22:11:13.191Z,11.38
2022-07-26T22:13:43.353Z,10.93
2022-07-26T22:16:13.981Z,10.82
2022-07-26T22:18:42.507Z,10.13
2022-07-26T22:21:11.345Z,9.80
2022-07-26T22:23:39.971Z,9.23
2022-07-26T22:26:08.735Z,8.35
2022-07-26T22:28:38.362Z,7.60
2022-07-26T22:31:06.928Z,7.20
2022-07-26T22:33:37.072Z,7.45
2022-07-26T22:36:06.548Z,6.53
2022-07-26T22:38:35.019Z,5.53
2022-07-26T22:41:03.415Z,5.95
2022-07-26T22:43:32.249Z,5.20
2022-07-26T22:46:00.918Z,5.88
2022-07-26T22:48:29.340Z,5.45
2022-07-26T22:50:59.731Z,4.90
2022-07-26T22:53:28.040Z,4.18
2022-07-26T22:55:56.737Z,4.65
2022-07-26T22:58:25.589Z,4.15
2022-07-26T23:00:54.417Z,3.95
2022-07-26T23:03:23.115Z,3.80
2022-07-26T23:05:52.555Z,3.88
2022-07-26T23:08:46.863Z,3.65
2022-07-26T23:11:11.308Z,3.50
2022-07-26T23:13:40.127Z,3.50
2022-07-26T23:16:09.084Z,3.53
2022-07-26T23:18:38.293Z,3.42
2022-07-26T23:21:07.083Z,3.45
2022-07-26T23:23:37.011Z,3.30
2022-07-26T23:26:05.896Z,3.40
2022-07-26T23:28:37.235Z,3.63
2022-07-26T23:31:11.609Z,3.58
2022-07-26T23:33:52.594Z,3.22
2022-07-26T23:36:26.208Z,3.20
2022-07-26T23:38:57.221Z,3.63
2022-07-26T23:41:26.251Z,3.67
2022-07-26T23:43:55.327Z,3.60
2022-07-26T23:46:24.978Z,3.25
2022-07-26T23:48:54.328Z,3.67
2022-07-26T23:51:24.008Z,3.33
2022-07-26T23:53:52.797Z,3.25
2022-07-26T23:56:23.162Z,3.30
2022-07-26T23:58:52.655Z,3.08
